createdAt,value
2022-11-15T00:02:04.925Z,8.60
2022-11-15T00:05:10.834Z,8.60
2022-11-15T00:08:16.397Z,8.60
2022-11-15T00:11:21.737Z,8.60
2022-11-15T00:14:27.770Z,8.60
2022-11-15T00:17:33.156Z,8.90
2022-11-15T00:20:38.731Z,8.70
2022-11-15T00:23:44.109Z,8.70
2022-11-15T00:26:49.515Z,8.70
2022-11-15T00:29:55.711Z,8.70
2022-11-15T00:33:02.911Z,8.80
2022-11-15T00:36:09.835Z,8.60
2022-11-15T00:39:15.550Z,8.80
2022-11-15T00:42:20.931Z,8.80
2022-11-15T00:45:27.261Z,9.40
2022-11-15T00:48:32.820Z,9.40
2022-11-15T00:51:38.391Z,8.90
2022-11-15T00:54:43.639Z,9.00
2022-11-15T00:57:49.260Z,9.00
2022-11-15T01:00:55.371Z,9.00
2022-11-15T01:04:01.622Z,9.00
2022-11-15T01:07:07.567Z,8.80
2022-11-15T01:10:13.223Z,8.60
2022-11-15T01:13:18.823Z,9.00
2022-11-15T01:16:25.012Z,9.60
2022-11-15T01:19:30.384Z,9.00
2022-11-15T01:22:36.059Z,9.10
2022-11-15T01:25:41.440Z,9.10
2022-11-15T01:28:47.000Z,9.10
2022-11-15T01:31:54.153Z,9.20
2022-11-15T01:34:59.384Z,9.20
2022-11-15T01:38:04.588Z,9.20
2022-11-15T01:41:16.671Z,9.20
2022-11-15T01:44:44.068Z,9.30
2022-11-15T01:47:53.063Z,9.30
2022-11-15T01:51:00.029Z,9.30
2022-11-15T01:54:09.233Z,9.30
2022-11-15T01:57:14.727Z,9.30
2022-11-15T02:00:20.306Z,9.40
2022-11-15T02:03:33.782Z,9.40
2022-11-15T02:06:40.431Z,9.40
2022-11-15T02:09:47.138Z,9.00
2022-11-15T02:12:53.781Z,9.50
2022-11-15T02:16:23.845Z,9.50
2022-11-15T02:20:01.690Z,9.50
2022-11-15T02:23:34.432Z,9.50
2022-11-15T02:27:18.617Z,9.60
2022-11-15T02:30:34.489Z,9.60
2022-11-15T02:33:46.763Z,9.70
2022-11-15T02:37:02.510Z,9.60
2022-11-15T02:40:13.515Z,9.70
2022-11-15T02:43:43.913Z,9.70
2022-11-15T02:47:11.266Z,9.70
2022-11-15T02:50:20.718Z,9.70
2022-11-15T02:53:26.773Z,9.80
2022-11-15T02:56:32.377Z,9.50
2022-11-15T03:00:01.934Z,9.60
2022-11-15T03:03:24.801Z,9.80
2022-11-15T03:06:36.964Z,9.80
2022-11-15T03:09:50.054Z,9.90
2022-11-15T03:12:59.072Z,9.90
2022-11-15T03:16:10.107Z,10.40
2022-11-15T03:19:22.452Z,10.00
2022-11-15T03:22:31.462Z,10.60
2022-11-15T03:25:45.310Z,10.00
2022-11-15T03:28:55.822Z,10.00
2022-11-15T03:32:05.914Z,10.00
2022-11-15T03:35:14.623Z,10.10
2022-11-15T03:38:25.043Z,10.10
2022-11-15T03:41:38.186Z,10.10
2022-11-15T03:44:51.659Z,10.10
2022-11-15T03:48:02.588Z,10.10
2022-11-15T03:51:09.116Z,10.10
2022-11-15T03:54:14.533Z,10.10
2022-11-15T03:57:20.236Z,10.10
2022-11-15T04:00:25.764Z,10.30
2022-11-15T04:03:31.395Z,10.30
2022-11-15T04:06:37.815Z,10.10
2022-11-15T04:09:58.106Z,10.10
2022-11-15T04:13:03.938Z,10.10
2022-11-15T04:16:21.525Z,10.00
2022-11-15T04:19:44.961Z,10.00
2022-11-15T04:23:11.725Z,10.00
2022-11-15T04:26:18.717Z,10.00
2022-11-15T04:29:36.366Z,10.10
2022-11-15T04:32:41.809Z,10.10
2022-11-15T04:36:05.529Z,10.10
2022-11-15T04:39:11.737Z,10.10
2022-11-15T04:42:17.529Z,10.10
2022-11-15T04:45:23.341Z,10.10
2022-11-15T04:48:28.537Z,10.10
2022-11-15T04:51:34.526Z,10.10
2022-11-15T04:54:42.247Z,10.20
2022-11-15T04:57:47.650Z,10.20
2022-11-15T05:00:53.126Z,10.20
2022-11-15T05:04:16.825Z,10.30
2022-11-15T05:07:22.807Z,10.50
2022-11-15T05:10:29.007Z,10.30
2022-11-15T05:13:34.669Z,10.20
2022-11-15T05:16:40.321Z,10.20
2022-11-15T05:19:45.613Z,10.20
2022-11-15T05:22:51.173Z,10.20
2022-11-15T05:26:03.862Z,10.20
2022-11-15T05:29:11.856Z,10.30
2022-11-15T05:32:18.243Z,10.40
2022-11-15T05:35:32.175Z,10.30
2022-11-15T05:38:37.957Z,10.40
2022-11-15T05:41:47.908Z,10.00
2022-11-15T05:44:53.742Z,10.40
2022-11-15T05:48:01.437Z,10.30
2022-11-15T05:51:08.059Z,10.20
2022-11-15T05:54:13.831Z,10.30
2022-11-15T05:57:19.770Z,10.30
2022-11-15T06:00:29.251Z,10.30
2022-11-15T06:03:34.875Z,10.40
2022-11-15T06:06:40.343Z,10.40
2022-11-15T06:09:45.784Z,10.90
2022-11-15T06:12:58.080Z,10.30
2022-11-15T06:16:03.767Z,10.30
2022-11-15T06:19:09.365Z,10.30
2022-11-15T06:22:15.161Z,10.30
2022-11-15T06:25:20.847Z,10.30
2022-11-15T06:28:29.717Z,10.30
2022-11-15T06:31:35.649Z,10.30
2022-11-15T06:34:51.647Z,10.30
2022-11-15T06:38:01.913Z,10.30
2022-11-15T06:41:09.463Z,10.30
2022-11-15T06:44:16.569Z,10.30
2022-11-15T06:47:21.994Z,10.40
2022-11-15T06:50:27.231Z,10.40
2022-11-15T06:53:33.155Z,10.40
2022-11-15T06:56:39.135Z,10.40
2022-11-15T06:59:45.079Z,10.50
2022-11-15T07:02:51.070Z,10.40
2022-11-15T07:06:01.388Z,10.60
2022-11-15T07:09:10.986Z,10.50
2022-11-15T07:12:16.472Z,11.20
2022-11-15T07:15:24.140Z,10.50
2022-11-15T07:18:30.070Z,10.50
2022-11-15T07:21:37.088Z,10.50
2022-11-15T07:24:42.724Z,10.50
2022-11-15T07:27:55.672Z,10.50
2022-11-15T07:31:03.418Z,10.90
2022-11-15T07:34:10.043Z,10.50
2022-11-15T07:37:16.923Z,10.60
2022-11-15T07:40:22.515Z,10.60
2022-11-15T07:43:29.851Z,10.60
2022-11-15T07:46:36.224Z,10.60
2022-11-15T07:49:42.000Z,10.70
2022-11-15T07:52:47.850Z,11.40
2022-11-15T07:55:53.960Z,10.70
2022-11-15T07:58:59.374Z,10.60
2022-11-15T08:02:05.903Z,10.50
2022-11-15T08:05:11.172Z,10.50
2022-11-15T08:08:16.773Z,10.60
2022-11-15T08:11:22.577Z,11.00
2022-11-15T08:14:27.942Z,10.60
2022-11-15T08:17:34.141Z,10.20
2022-11-15T08:20:39.925Z,11.20
2022-11-15T08:23:45.329Z,10.70
2022-11-15T08:26:50.877Z,10.70
2022-11-15T08:29:59.454Z,10.70
2022-11-15T08:33:06.042Z,10.70
2022-11-15T08:36:14.034Z,10.70
2022-11-15T08:39:19.189Z,10.70
2022-11-15T08:42:24.926Z,10.70
2022-11-15T08:45:30.608Z,10.70
2022-11-15T08:48:36.918Z,10.80
2022-11-15T08:51:43.250Z,10.90
2022-11-15T08:54:48.822Z,10.90
2022-11-15T08:57:58.231Z,11.20
2022-11-15T09:01:05.152Z,11.00
2022-11-15T09:04:11.082Z,10.90
2022-11-15T09:07:16.709Z,11.10
2022-11-15T09:10:22.603Z,11.10
2022-11-15T09:13:28.171Z,11.10
2022-11-15T09:16:33.354Z,11.10
2022-11-15T09:19:39.596Z,11.20
2022-11-15T09:22:45.076Z,11.30
2022-11-15T09:25:50.418Z,11.40
2022-11-15T09:28:56.045Z,11.30
2022-11-15T09:32:01.581Z,11.30
2022-11-15T09:35:07.796Z,11.40
2022-11-15T09:38:13.290Z,11.50
2022-11-15T09:41:36.980Z,11.50
2022-11-15T09:44:52.573Z,11.40
2022-11-15T09:48:13.427Z,11.40
2022-11-15T09:51:29.257Z,11.40
2022-11-15T09:57:42.525Z,11.40
2022-11-15T10:00:49.598Z,11.30
2022-11-15T10:03:41.884Z,11.60
2022-11-15T10:06:30.924Z,11.30
2022-11-15T10:09:32.465Z,11.30
2022-11-15T10:12:19.458Z,11.30
2022-11-15T10:15:13.385Z,11.40
2022-11-15T10:18:09.269Z,11.40
2022-11-15T10:20:59.544Z,11.50
2022-11-15T10:23:47.165Z,11.50
2022-11-15T10:26:34.000Z,11.50
2022-11-15T10:29:26.429Z,11.60
2022-11-15T10:32:16.357Z,11.70
2022-11-15T10:35:21.342Z,11.80
2022-11-15T10:38:10.217Z,11.90
2022-11-15T10:41:07.792Z,12.00
2022-11-15T10:44:12.098Z,12.10
2022-11-15T10:47:38.971Z,12.20
2022-11-15T10:50:29.206Z,12.10
2022-11-15T10:53:44.336Z,12.10
2022-11-15T10:56:31.852Z,12.10
2022-11-15T10:59:24.944Z,12.10
2022-11-15T11:02:30.088Z,12.20
2022-11-15T11:05:27.908Z,12.20
2022-11-15T11:08:23.891Z,12.40
2022-11-15T11:11:10.791Z,12.40
2022-11-15T11:14:12.473Z,12.40
2022-11-15T11:17:06.465Z,12.40
2022-11-15T11:20:03.747Z,12.40
2022-11-15T11:23:03.753Z,12.30
2022-11-15T11:26:03.419Z,12.20
2022-11-15T11:29:01.027Z,12.80
2022-11-15T11:31:58.404Z,12.20
2022-11-15T11:34:56.313Z,11.90
2022-11-15T11:37:47.980Z,12.20
2022-11-15T11:40:51.765Z,12.20
2022-11-15T11:43:48.796Z,12.30
2022-11-15T11:46:49.569Z,12.40
2022-11-15T11:49:46.809Z,12.50
2022-11-15T11:52:39.507Z,12.50
2022-11-15T11:55:31.553Z,12.40
2022-11-15T11:58:22.447Z,12.50
2022-11-15T12:01:15.195Z,12.40
2022-11-15T12:04:09.894Z,12.30
2022-11-15T12:07:00.556Z,12.30
2022-11-15T12:09:56.120Z,12.30
2022-11-15T12:12:52.023Z,12.20
2022-11-15T12:15:46.035Z,12.20
2022-11-15T12:18:34.202Z,12.20
2022-11-15T12:21:31.325Z,12.10
2022-11-15T12:24:23.632Z,12.20
2022-11-15T12:27:20.625Z,12.10
2022-11-15T12:30:14.313Z,12.10
2022-11-15T12:33:02.595Z,12.20
2022-11-15T12:35:59.645Z,12.20
2022-11-15T12:38:55.872Z,12.20
2022-11-15T12:41:44.611Z,12.30
2022-11-15T12:44:59.586Z,12.40
2022-11-15T12:47:46.430Z,12.40
2022-11-15T12:50:54.383Z,12.30
2022-11-15T12:53:41.363Z,12.30
2022-11-15T12:56:28.902Z,12.30
2022-11-15T12:59:49.202Z,12.40
2022-11-15T13:02:38.450Z,12.40
2022-11-15T13:06:01.884Z,12.40
2022-11-15T13:08:50.976Z,12.40
2022-11-15T13:11:51.910Z,12.40
2022-11-15T13:14:50.849Z,12.30
2022-11-15T13:17:40.368Z,12.30
2022-11-15T13:20:28.584Z,12.30
2022-11-15T13:23:16.821Z,12.30
2022-11-15T13:26:12.290Z,12.90
2022-11-15T13:29:00.796Z,12.20
2022-11-15T13:31:49.024Z,12.40
2022-11-15T13:34:51.385Z,12.30
2022-11-15T13:37:40.069Z,12.30
2022-11-15T13:40:30.553Z,12.30
2022-11-15T13:43:29.201Z,12.40
2022-11-15T13:46:18.153Z,12.40
2022-11-15T13:49:10.970Z,12.40
2022-11-15T13:51:58.499Z,12.40
2022-11-15T13:54:49.166Z,12.30
2022-11-15T13:57:42.411Z,12.30
2022-11-15T14:00:37.066Z,12.30
2022-11-15T14:03:28.019Z,12.30
2022-11-15T14:06:16.631Z,12.30
2022-11-15T14:09:30.822Z,12.30
2022-11-15T14:12:27.863Z,12.30
2022-11-15T14:15:28.807Z,12.10
2022-11-15T14:18:48.168Z,11.90
2022-11-15T14:21:36.158Z,12.30
2022-11-15T14:24:23.317Z,12.30
2022-11-15T14:27:21.543Z,12.30
2022-11-15T14:30:13.944Z,12.30
2022-11-15T14:33:00.936Z,12.30
2022-11-15T14:35:48.355Z,12.40
2022-11-15T14:38:36.171Z,12.30
2022-11-15T14:41:26.486Z,12.30
2022-11-15T14:44:18.489Z,12.40
2022-11-15T14:47:05.387Z,12.30
2022-11-15T14:49:52.226Z,12.30
2022-11-15T14:52:39.353Z,12.30
2022-11-15T14:55:28.720Z,12.30
2022-11-15T14:58:15.560Z,12.30
2022-11-15T15:01:03.432Z,12.30
2022-11-15T15:03:52.157Z,12.30
2022-11-15T15:06:39.018Z,12.30
2022-11-15T15:09:25.902Z,12.40
2022-11-15T15:12:18.621Z,12.40
2022-11-15T15:15:06.834Z,12.30
2022-11-15T19:59:47.739Z,11.30
2022-11-15T20:02:37.334Z,11.30
2022-11-15T20:05:24.495Z,11.40
2022-11-15T20:08:11.354Z,11.40
2022-11-15T20:10:59.446Z,11.40
2022-11-15T20:13:46.530Z,11.40
2022-11-15T20:16:34.058Z,11.40
2022-11-15T20:19:21.626Z,11.30
2022-11-15T20:22:09.603Z,11.30
2022-11-15T20:24:56.479Z,11.30
2022-11-15T20:27:43.395Z,11.30
2022-11-15T20:30:30.292Z,11.30
2022-11-15T20:33:17.956Z,11.30
2022-11-15T20:36:05.691Z,11.30
2022-11-15T20:38:56.301Z,11.30
2022-11-15T20:41:43.160Z,11.30
2022-11-15T20:44:30.016Z,11.30
2022-11-15T20:47:16.859Z,11.40
2022-11-15T20:50:35.204Z,11.30
2022-11-15T20:53:14.299Z,11.30
2022-11-15T20:56:07.231Z,11.30
2022-11-15T20:58:55.619Z,11.30
2022-11-15T21:01:42.614Z,11.30
2022-11-15T21:04:29.578Z,11.30
2022-11-15T21:07:17.148Z,11.30
2022-11-15T21:10:22.503Z,11.30
2022-11-15T21:13:09.361Z,11.30
2022-11-15T21:15:57.067Z,11.30
2022-11-15T21:18:44.220Z,11.30
2022-11-15T21:21:31.096Z,11.30
2022-11-15T21:24:19.498Z,11.30
2022-11-15T21:27:06.656Z,11.30
2022-11-15T21:29:53.616Z,11.30
2022-11-15T21:32:40.477Z,11.30
2022-11-15T21:35:27.304Z,11.30
2022-11-15T21:38:14.216Z,11.30
2022-11-15T21:41:03.578Z,11.30
2022-11-15T21:43:50.437Z,11.30
2022-11-15T21:46:37.352Z,11.30
2022-11-15T21:49:24.258Z,11.30
2022-11-15T21:52:11.153Z,11.30
2022-11-15T21:54:58.058Z,11.30
2022-11-15T21:57:45.578Z,11.30
2022-11-15T22:00:50.592Z,11.30
2022-11-15T22:03:37.518Z,11.30
2022-11-15T22:06:24.656Z,11.30
2022-11-15T22:09:12.039Z,11.30
2022-11-15T22:11:59.108Z,11.30
2022-11-15T22:14:46.579Z,11.30
2022-11-15T22:17:48.305Z,11.30
2022-11-15T22:20:44.681Z,11.30
2022-11-15T22:23:33.486Z,11.30
2022-11-15T22:26:23.692Z,11.30
2022-11-15T22:29:11.119Z,11.30
2022-11-15T22:31:58.903Z,11.30
2022-11-15T22:34:45.899Z,11.30
2022-11-15T22:37:32.989Z,11.30
2022-11-15T22:40:20.021Z,11.40
2022-11-15T22:43:07.152Z,11.40
2022-11-15T22:45:55.516Z,11.40
2022-11-15T22:48:43.236Z,11.40
2022-11-15T22:51:30.250Z,11.40
2022-11-15T22:54:17.260Z,11.40
2022-11-15T22:57:04.300Z,11.40
2022-11-15T22:59:51.300Z,11.40
2022-11-15T23:02:38.725Z,11.30
2022-11-15T23:05:26.948Z,11.30
2022-11-15T23:08:13.993Z,11.30
2022-11-15T23:11:19.721Z,11.30
2022-11-15T23:14:06.736Z,11.30
2022-11-15T23:16:53.793Z,11.30
2022-11-15T23:19:40.844Z,11.30
2022-11-15T23:22:46.777Z,11.30
2022-11-15T23:25:33.827Z,11.30
2022-11-15T23:28:20.873Z,11.30
2022-11-15T23:31:27.853Z,11.30
2022-11-15T23:34:18.542Z,11.30
2022-11-15T23:37:11.530Z,11.30
2022-11-15T23:39:59.205Z,11.30
2022-11-15T23:42:46.226Z,11.30
2022-11-15T23:45:33.265Z,11.30
2022-11-15T23:48:20.273Z,11.30
2022-11-15T23:51:07.327Z,11.30
2022-11-15T23:53:54.349Z,11.30
2022-11-15T23:56:42.077Z,11.20
2022-11-15T23:59:29.124Z,11.20
